Time;durP1;ratioP1;P1;durP2;ratioP2;P2;SDS_P1;SDS_P2;PMS_P1;PMS_P2;Temp;Humidity;BMP_temperature;BMP_pressure;BME280_temperature;BME280_humidity;BME280_pressure;Samples;Min_cycle;Max_cycle;Signal;HPM_P1;HPM_P2
2021/10/19 00:01:06;;;;;;;7.67;5.93;;;10.00;99.90;;;;;;5046165;28;20210;-47
2021/10/19 00:03:33;;;;;;;6.10;5.50;;;10.10;99.90;;;;;;5036778;28;20222;-55
2021/10/19 00:05:59;;;;;;;5.77;5.27;;;10.10;99.90;;;;;;5042111;28;20192;-50
2021/10/19 00:08:26;;;;;;;6.30;5.70;;;10.10;99.90;;;;;;5028271;28;20206;-57
2021/10/19 00:10:53;;;;;;;6.63;5.97;;;10.20;99.90;;;;;;5041098;28;20203;-47
2021/10/19 00:13:20;;;;;;;8.97;5.43;;;10.10;99.90;;;;;;5043665;28;20234;-55
2021/10/19 00:15:47;;;;;;;6.83;5.40;;;10.10;99.90;;;;;;5043325;28;20829;-49
2021/10/19 00:18:14;;;;;;;6.17;5.57;;;10.00;99.90;;;;;;5040671;28;20210;-57
2021/10/19 00:20:41;;;;;;;7.77;5.40;;;10.00;99.90;;;;;;5041982;28;20222;-49
2021/10/19 00:23:07;;;;;;;8.97;5.50;;;10.00;99.90;;;;;;5045022;28;20223;-52
2021/10/19 00:25:34;;;;;;;6.07;5.33;;;10.00;99.90;;;;;;5028593;28;20739;-48
2021/10/19 00:28:00;;;;;;;6.30;5.70;;;10.00;99.90;;;;;;5045104;28;20195;-49
2021/10/19 00:30:28;;;;;;;7.53;5.87;;;10.00;99.90;;;;;;5042368;28;20199;-54
2021/10/19 00:32:55;;;;;;;6.33;5.73;;;10.00;99.90;;;;;;5042349;28;20223;-46
2021/10/19 00:35:21;;;;;;;6.67;5.30;;;10.00;99.90;;;;;;5043194;28;20195;-57
2021/10/19 00:37:48;;;;;;;6.93;5.40;;;10.00;99.90;;;;;;5043183;28;20912;-46
2021/10/19 00:40:15;;;;;;;7.07;6.33;;;10.00;99.90;;;;;;5032089;28;20238;-58
2021/10/19 00:42:42;;;;;;;7.27;6.33;;;10.00;99.90;;;;;;5041056;28;20211;-51
2021/10/19 00:45:09;;;;;;;9.30;5.77;;;10.00;99.90;;;;;;5044993;28;20206;-51
2021/10/19 00:47:45;;;;;;;8.87;6.00;;;10.00;99.90;;;;;;5036475;28;20618;-50
2021/10/19 00:50:12;;;;;;;7.80;6.00;;;9.90;99.90;;;;;;5044907;28;20195;-52
2021/10/19 00:52:39;;;;;;;7.37;6.10;;;9.90;99.90;;;;;;5040658;28;20226;-47
2021/10/19 00:55:09;;;;;;;8.20;5.97;;;9.90;99.90;;;;;;5044542;28;20195;-53
2021/10/19 00:57:35;;;;;;;8.07;6.80;;;9.90;99.90;;;;;;5027544;28;20195;-47
2021/10/19 01:00:02;;;;;;;9.53;6.27;;;9.90;99.90;;;;;;5041540;28;20227;-45
2021/10/19 01:02:29;;;;;;;9.43;6.13;;;9.90;99.90;;;;;;5037749;28;20690;-58
2021/10/19 01:04:57;;;;;;;8.63;6.40;;;9.90;99.90;;;;;;5038757;28;20695;-45
2021/10/19 01:07:24;;;;;;;8.97;6.20;;;10.00;99.90;;;;;;5041188;28;20664;-53
2021/10/19 01:09:51;;;;;;;8.57;6.07;;;10.00;99.90;;;;;;5035601;28;20184;-47
2021/10/19 01:12:18;;;;;;;8.17;6.60;;;10.00;99.90;;;;;;5030150;28;20231;-56
2021/10/19 01:14:45;;;;;;;10.47;6.27;;;10.00;99.90;;;;;;5041051;28;20188;-48
2021/10/19 01:17:11;;;;;;;6.87;5.83;;;10.00;99.90;;;;;;5043772;28;20226;-45
2021/10/19 01:19:38;;;;;;;7.80;6.87;;;10.00;99.90;;;;;;5035811;28;21059;-45
2021/10/19 01:22:08;;;;;;;9.07;6.23;;;10.00;99.90;;;;;;5043852;28;20230;-49
2021/10/19 01:24:35;;;;;;;8.77;7.20;;;10.00;99.90;;;;;;5039758;28;20199;-51
2021/10/19 01:27:02;;;;;;;8.10;6.60;;;10.00;99.90;;;;;;5031249;28;20212;-47
2021/10/19 01:29:29;;;;;;;8.53;6.67;;;10.00;99.90;;;;;;5040645;28;20201;-56
2021/10/19 01:31:57;;;;;;;11.87;7.57;;;10.10;99.90;;;;;;5044434;28;20274;-47
2021/10/19 01:34:24;;;;;;;9.20;7.50;;;10.20;99.90;;;;;;5036915;28;20687;-51
2021/10/19 01:36:51;;;;;;;8.87;7.20;;;10.20;99.90;;;;;;5042214;28;20911;-48
2021/10/19 01:39:19;;;;;;;9.80;7.47;;;10.20;99.90;;;;;;5042632;28;20211;-56
2021/10/19 01:41:46;;;;;;;8.90;7.40;;;10.20;99.90;;;;;;5022678;28;20211;-46
2021/10/19 01:44:14;;;;;;;8.73;7.57;;;10.20;99.90;;;;;;5043238;28;20225;-51
2021/10/19 01:46:40;;;;;;;9.40;7.03;;;10.20;99.90;;;;;;5040141;28;20199;-44
2021/10/19 01:49:07;;;;;;;10.83;8.03;;;10.30;99.90;;;;;;5043855;28;20200;-45
2021/10/19 01:51:34;;;;;;;9.70;7.37;;;10.30;99.90;;;;;;5034518;28;20199;-51
2021/10/19 01:54:00;;;;;;;12.73;7.47;;;10.40;99.90;;;;;;5043532;28;20230;-48
2021/10/19 01:56:28;;;;;;;11.67;7.97;;;10.40;99.90;;;;;;5031678;28;20254;-55
2021/10/19 01:58:55;;;;;;;9.67;7.30;;;10.40;99.90;;;;;;5040696;28;20212;-45
2021/10/19 02:01:21;;;;;;;9.43;7.57;;;10.40;99.90;;;;;;5043991;28;20218;-57
2021/10/19 02:03:48;;;;;;;8.67;7.77;;;10.40;99.90;;;;;;5041619;28;20215;-50
2021/10/19 02:06:15;;;;;;;11.17;7.80;;;10.40;99.90;;;;;;5038431;28;20207;-55
2021/10/19 02:08:41;;;;;;;10.23;7.33;;;10.40;99.90;;;;;;5039413;28;20810;-44
2021/10/19 02:11:08;;;;;;;11.00;8.07;;;10.40;99.90;;;;;;5043109;28;20199;-49
2021/10/19 02:13:36;;;;;;;10.20;8.10;;;10.40;99.90;;;;;;5029601;28;20222;-47
2021/10/19 02:16:03;;;;;;;10.83;7.70;;;10.50;99.90;;;;;;5043076;28;20214;-48
2021/10/19 02:18:29;;;;;;;13.10;8.27;;;10.50;99.90;;;;;;5039494;28;20199;-53
2021/10/19 02:20:56;;;;;;;8.77;7.07;;;10.50;99.90;;;;;;5038437;28;20219;-48
2021/10/19 02:23:23;;;;;;;11.60;8.27;;;10.50;99.90;;;;;;5040736;28;20238;-57
2021/10/19 02:25:49;;;;;;;8.63;7.73;;;10.50;99.90;;;;;;5040051;28;20199;-49
2021/10/19 02:28:16;;;;;;;9.57;8.10;;;10.50;99.90;;;;;;5040349;28;20613;-55
2021/10/19 02:30:44;;;;;;;10.80;7.87;;;10.50;99.90;;;;;;5030301;28;20199;-51
2021/10/19 02:33:10;;;;;;;12.27;8.00;;;10.50;99.90;;;;;;5042229;28;20223;-45
2021/10/19 02:35:37;;;;;;;10.33;7.83;;;10.50;99.90;;;;;;5034697;28;20894;-49
2021/10/19 02:38:03;;;;;;;9.33;7.87;;;10.50;99.90;;;;;;5042990;28;20200;-47
2021/10/19 02:40:30;;;;;;;10.53;8.30;;;10.50;99.90;;;;;;5039545;28;20632;-55
2021/10/19 02:42:57;;;;;;;10.07;7.60;;;10.50;99.90;;;;;;5042505;28;20223;-46
2021/10/19 02:45:24;;;;;;;10.47;8.10;;;10.50;99.90;;;;;;5028179;28;20215;-55
2021/10/19 02:47:52;;;;;;;9.67;7.67;;;10.50;99.90;;;;;;5041090;28;20943;-47
2021/10/19 02:50:18;;;;;;;13.00;8.87;;;10.60;99.90;;;;;;5041745;28;20674;-51
2021/10/19 02:52:45;;;;;;;13.60;8.67;;;10.50;99.90;;;;;;5035742;28;20322;-44
2021/10/19 02:55:16;;;;;;;9.73;8.10;;;10.50;99.90;;;;;;5042820;28;20203;-48
2021/10/19 02:57:43;;;;;;;12.83;8.27;;;10.50;99.90;;;;;;5039866;28;20222;-43
2021/10/19 03:00:11;;;;;;;13.13;9.80;;;10.50;99.90;;;;;;5030634;28;20714;-45
2021/10/19 03:02:37;;;;;;;11.10;7.33;;;10.50;99.90;;;;;;5038413;28;20230;-48
2021/10/19 03:05:06;;;;;;;12.10;8.33;;;10.50;99.90;;;;;;5042776;28;20203;-45
2021/10/19 03:07:33;;;;;;;11.97;8.73;;;10.50;99.90;;;;;;5026985;28;20202;-41
2021/10/19 03:09:59;;;;;;;12.67;8.47;;;10.50;99.90;;;;;;5038101;28;20207;-50
2021/10/19 03:12:26;;;;;;;9.83;8.17;;;10.50;99.90;;;;;;5042008;28;20238;-44
2021/10/19 03:14:52;;;;;;;11.00;8.73;;;10.50;99.90;;;;;;5033598;28;20203;-51
2021/10/19 03:17:19;;;;;;;12.13;9.10;;;10.50;99.90;;;;;;5036251;28;20199;-41
2021/10/19 03:19:46;;;;;;;10.90;8.80;;;10.40;99.90;;;;;;5044114;28;20222;-55
2021/10/19 03:22:14;;;;;;;10.07;8.50;;;10.40;99.90;;;;;;5038708;28;20223;-43
2021/10/19 03:24:40;;;;;;;14.20;9.40;;;10.40;99.90;;;;;;5046456;28;20563;-42
2021/10/19 03:27:07;;;;;;;13.77;9.50;;;10.40;99.90;;;;;;5042178;28;20196;-41
2021/10/19 03:29:34;;;;;;;12.37;8.93;;;10.40;99.90;;;;;;5046563;28;20207;-43
2021/10/19 03:32:00;;;;;;;11.33;8.30;;;10.40;99.90;;;;;;5029608;28;20211;-54
2021/10/19 03:34:27;;;;;;;11.73;9.20;;;10.40;99.90;;;;;;5045806;28;20199;-46
2021/10/19 03:36:53;;;;;;;13.10;9.93;;;10.40;99.90;;;;;;5042298;28;20207;-53
2021/10/19 03:39:21;;;;;;;11.00;9.07;;;10.40;99.90;;;;;;5042592;28;20195;-44
2021/10/19 03:41:49;;;;;;;15.80;9.77;;;10.50;99.90;;;;;;5044469;28;20219;-50
2021/10/19 03:44:16;;;;;;;16.60;10.70;;;10.40;99.90;;;;;;5043725;28;20191;-40
2021/10/19 03:46:43;;;;;;;12.90;9.23;;;10.50;99.90;;;;;;5045034;28;20203;-54
2021/10/19 03:49:09;;;;;;;13.57;10.37;;;10.50;99.90;;;;;;5032527;28;20210;-44
2021/10/19 03:51:36;;;;;;;12.13;9.43;;;10.50;99.90;;;;;;5045889;28;20188;-46
2021/10/19 03:54:03;;;;;;;13.83;9.97;;;10.50;99.90;;;;;;5037384;28;20220;-41
2021/10/19 03:56:31;;;;;;;15.37;10.67;;;10.50;99.90;;;;;;5045821;28;20203;-44
2021/10/19 03:58:57;;;;;;;16.13;9.60;;;10.50;99.90;;;;;;5042745;28;20199;-50
2021/10/19 04:01:24;;;;;;;11.43;9.53;;;10.50;99.90;;;;;;5037496;28;20325;-44
2021/10/19 04:03:51;;;;;;;14.70;10.40;;;10.50;99.90;;;;;;5031095;28;20714;-50
2021/10/19 04:06:17;;;;;;;15.33;10.20;;;10.50;99.90;;;;;;5043791;28;20998;-44
2021/10/19 04:08:44;;;;;;;16.93;11.10;;;10.60;99.90;;;;;;5043091;28;20215;-53
2021/10/19 04:11:11;;;;;;;15.87;10.43;;;10.60;99.90;;;;;;5037431;28;20214;-41
2021/10/19 04:13:39;;;;;;;14.17;9.77;;;10.60;99.90;;;;;;5044591;28;20252;-48
2021/10/19 04:16:06;;;;;;;15.07;10.00;;;10.60;99.90;;;;;;5040350;28;20881;-50
2021/10/19 04:18:32;;;;;;;16.63;10.33;;;10.60;99.90;;;;;;5032894;28;20204;-44
2021/10/19 04:21:00;;;;;;;16.57;9.90;;;10.60;99.90;;;;;;5041561;28;20226;-56
2021/10/19 04:23:27;;;;;;;17.00;10.87;;;10.60;99.90;;;;;;5044808;28;20223;-49
2021/10/19 04:25:54;;;;;;;13.00;10.03;;;10.60;99.90;;;;;;5038313;28;20231;-58
2021/10/19 04:28:20;;;;;;;17.37;11.03;;;10.60;99.90;;;;;;5036594;28;20191;-48
2021/10/19 04:30:50;;;;;;;15.83;11.33;;;10.60;99.90;;;;;;5042899;28;20214;-56
2021/10/19 04:33:17;;;;;;;14.07;10.73;;;10.60;99.90;;;;;;5019903;28;20781;-44
2021/10/19 04:35:43;;;;;;;16.67;11.70;;;10.60;99.90;;;;;;5037951;28;20223;-50
2021/10/19 04:38:10;;;;;;;15.13;11.00;;;10.60;99.90;;;;;;5037024;28;20921;-48
2021/10/19 04:40:37;;;;;;;15.97;10.23;;;10.60;99.90;;;;;;5038925;28;20211;-47
2021/10/19 04:43:04;;;;;;;17.07;10.43;;;10.60;99.90;;;;;;5035545;28;20226;-45
2021/10/19 04:45:30;;;;;;;18.37;12.10;;;10.70;99.90;;;;;;5042434;28;20561;-50
2021/10/19 04:48:01;;;;;;;16.23;11.57;;;10.70;99.90;;;;;;5023519;28;20378;-52
2021/10/19 04:50:27;;;;;;;16.60;11.57;;;10.70;99.90;;;;;;5044070;28;20217;-43
2021/10/19 04:52:55;;;;;;;17.97;11.40;;;10.70;99.90;;;;;;5037765;28;20235;-50
2021/10/19 04:55:21;;;;;;;16.00;11.67;;;10.60;99.90;;;;;;5038334;28;20207;-43
2021/10/19 04:57:48;;;;;;;16.93;12.50;;;10.60;99.90;;;;;;5043272;28;20195;-52
2021/10/19 05:00:15;;;;;;;19.40;11.70;;;10.70;99.90;;;;;;5038628;28;20895;-48
2021/10/19 05:02:46;;;;;;;16.00;11.77;;;10.70;99.90;;;;;;5043785;28;20227;-43
2021/10/19 05:05:15;;;;;;;16.67;11.67;;;10.70;99.90;;;;;;5024589;28;20218;-50
2021/10/19 05:07:43;;;;;;;22.83;13.07;;;10.70;99.90;;;;;;5025398;28;20237;-46
2021/10/19 05:10:10;;;;;;;20.17;12.43;;;10.70;99.90;;;;;;5043864;28;20566;-43
2021/10/19 05:12:37;;;;;;;18.80;13.17;;;10.70;99.90;;;;;;5027861;28;20228;-44
2021/10/19 05:15:04;;;;;;;18.00;12.70;;;10.70;99.90;;;;;;5037802;28;20199;-45
2021/10/19 05:17:31;;;;;;;17.23;11.87;;;10.80;99.90;;;;;;5036636;28;20199;-52
2021/10/19 05:19:57;;;;;;;20.73;13.53;;;10.80;99.90;;;;;;5032603;28;20230;-45
2021/10/19 05:22:26;;;;;;;16.17;12.13;;;10.80;99.90;;;;;;5040406;28;20230;-55
2021/10/19 05:24:53;;;;;;;17.80;11.93;;;10.80;99.90;;;;;;5042569;28;20190;-45
2021/10/19 05:27:19;;;;;;;18.30;12.27;;;10.80;99.90;;;;;;5038033;28;20218;-51
2021/10/19 05:29:46;;;;;;;17.57;12.07;;;10.90;99.90;;;;;;5037396;28;20858;-46
2021/10/19 05:32:13;;;;;;;17.40;12.50;;;10.90;99.90;;;;;;5043481;28;20219;-48
2021/10/19 05:34:39;;;;;;;15.37;11.73;;;10.90;99.90;;;;;;5039640;28;20230;-43
2021/10/19 05:37:06;;;;;;;17.97;13.03;;;10.90;99.90;;;;;;5030862;28;20215;-45
2021/10/19 05:39:34;;;;;;;16.53;12.10;;;10.90;99.90;;;;;;5035276;28;20211;-53
2021/10/19 05:42:01;;;;;;;16.50;11.83;;;10.90;99.90;;;;;;5038578;28;20276;-44
2021/10/19 05:44:27;;;;;;;17.80;12.23;;;10.90;99.90;;;;;;5036656;28;20196;-53
2021/10/19 05:46:54;;;;;;;19.57;11.60;;;11.00;99.90;;;;;;5037085;28;20215;-47
2021/10/19 05:49:21;;;;;;;17.70;12.47;;;11.00;99.90;;;;;;5042148;28;20209;-53
2021/10/19 05:51:48;;;;;;;15.80;12.37;;;11.00;99.90;;;;;;5024229;28;20211;-47
2021/10/19 05:54:16;;;;;;;17.90;12.20;;;11.00;99.90;;;;;;5030135;28;20282;-54
2021/10/19 05:56:44;;;;;;;18.17;12.40;;;11.00;99.90;;;;;;5037594;28;20294;-43
2021/10/19 05:59:11;;;;;;;17.83;11.90;;;11.00;99.90;;;;;;5034013;28;20579;-51
2021/10/19 06:01:37;;;;;;;18.00;13.30;;;11.00;99.90;;;;;;5043014;28;20222;-46
2021/10/19 06:04:05;;;;;;;19.30;13.40;;;11.00;99.90;;;;;;5041390;28;20581;-47
2021/10/19 06:06:31;;;;;;;18.67;12.40;;;11.10;99.90;;;;;;5028786;28;21964;-42
2021/10/19 06:08:58;;;;;;;18.33;12.67;;;11.10;99.90;;;;;;5042888;28;20199;-42
2021/10/19 06:11:25;;;;;;;19.77;12.47;;;11.10;99.90;;;;;;5032719;28;20199;-50
2021/10/19 06:13:53;;;;;;;17.47;12.50;;;11.10;99.90;;;;;;5042689;28;20254;-44
2021/10/19 06:16:19;;;;;;;19.60;13.27;;;11.10;99.90;;;;;;5044260;28;20203;-43
2021/10/19 06:18:46;;;;;;;21.20;13.00;;;11.10;99.90;;;;;;5043523;28;20207;-42
2021/10/19 06:21:13;;;;;;;28.63;13.40;;;11.10;99.90;;;;;;5035039;28;20220;-52
2021/10/19 06:23:40;;;;;;;19.50;13.00;;;11.10;99.90;;;;;;5040086;28;20227;-46
2021/10/19 06:26:07;;;;;;;21.47;13.47;;;11.20;99.90;;;;;;5039961;28;20230;-50
2021/10/19 06:28:33;;;;;;;21.33;13.27;;;11.20;99.90;;;;;;5042789;28;20207;-44
2021/10/19 06:31:01;;;;;;;20.53;13.27;;;11.20;99.90;;;;;;5038781;28;20613;-49
2021/10/19 06:33:28;;;;;;;17.63;12.80;;;11.20;99.90;;;;;;5035917;28;20231;-48
2021/10/19 06:35:55;;;;;;;20.23;13.17;;;11.20;99.90;;;;;;5035050;28;20208;-52
2021/10/19 06:38:21;;;;;;;17.67;12.73;;;11.30;99.90;;;;;;5032827;28;20595;-45
2021/10/19 06:40:48;;;;;;;21.63;13.80;;;11.30;99.90;;;;;;5044564;28;20210;-50
2021/10/19 06:43:15;;;;;;;21.20;13.97;;;11.30;99.90;;;;;;5035803;28;20223;-47
2021/10/19 06:45:41;;;;;;;18.50;13.30;;;11.30;99.90;;;;;;5026354;28;20203;-52
2021/10/19 06:48:09;;;;;;;17.37;11.93;;;11.30;99.90;;;;;;5024659;28;20211;-50
2021/10/19 06:50:37;;;;;;;22.13;13.70;;;11.40;99.90;;;;;;5031004;28;20207;-48
2021/10/19 06:53:04;;;;;;;21.00;14.10;;;11.40;99.90;;;;;;5010134;28;22312;-47
2021/10/19 06:55:30;;;;;;;18.13;12.63;;;11.40;99.90;;;;;;5037509;28;20207;-49
2021/10/19 06:57:58;;;;;;;18.80;13.50;;;11.40;99.90;;;;;;5027594;28;20210;-46
2021/10/19 07:00:25;;;;;;;19.17;13.97;;;11.50;99.90;;;;;;5043631;28;20196;-54
2021/10/19 07:02:51;;;;;;;17.67;13.10;;;11.50;99.90;;;;;;5026032;28;20230;-53
2021/10/19 07:05:19;;;;;;;20.43;13.70;;;11.50;99.90;;;;;;5041895;28;20222;-49
2021/10/19 07:07:46;;;;;;;18.50;12.80;;;11.60;99.90;;;;;;5037571;28;20203;-51
2021/10/19 07:10:14;;;;;;;19.57;13.27;;;11.60;99.90;;;;;;5029045;28;20215;-45
2021/10/19 07:12:41;;;;;;;21.30;14.27;;;11.70;99.90;;;;;;5030729;28;20226;-50
2021/10/19 07:15:10;;;;;;;25.87;14.60;;;11.70;99.90;;;;;;5035419;28;20214;-44
2021/10/19 07:17:37;;;;;;;20.37;13.03;;;11.80;99.90;;;;;;5036163;28;20583;-49
2021/10/19 07:20:05;;;;;;;22.93;14.93;;;11.80;99.90;;;;;;5036621;28;20192;-48
2021/10/19 07:22:33;;;;;;;20.33;13.43;;;11.80;99.90;;;;;;5038678;28;20608;-45
2021/10/19 07:25:01;;;;;;;21.67;14.13;;;11.90;99.90;;;;;;5025520;28;20199;-45
2021/10/19 07:27:27;;;;;;;20.33;13.73;;;11.90;99.90;;;;;;5038277;28;20200;-45
2021/10/19 07:29:54;;;;;;;24.23;13.70;;;11.90;99.90;;;;;;5035243;28;20535;-51
2021/10/19 07:32:21;;;;;;;18.57;13.47;;;12.00;99.90;;;;;;5049036;28;20223;-45
2021/10/19 07:34:48;;;;;;;19.50;14.30;;;12.00;99.90;;;;;;5031051;28;20214;-54
2021/10/19 07:37:15;;;;;;;21.90;14.43;;;12.10;99.90;;;;;;5031400;28;20363;-49
2021/10/19 07:39:43;;;;;;;21.93;13.53;;;12.10;99.90;;;;;;5035041;28;20283;-51
2021/10/19 07:42:10;;;;;;;21.83;14.20;;;12.10;99.90;;;;;;5022788;28;20251;-44
2021/10/19 07:44:36;;;;;;;21.47;13.77;;;12.20;99.90;;;;;;5027056;28;20211;-46
2021/10/19 07:47:03;;;;;;;18.77;13.47;;;12.20;99.90;;;;;;5037014;28;20203;-44
2021/10/19 07:49:30;;;;;;;16.53;12.83;;;12.30;99.90;;;;;;5035217;28;20214;-51
2021/10/19 07:51:56;;;;;;;19.03;12.93;;;12.30;99.90;;;;;;5031068;28;20192;-54
2021/10/19 07:54:23;;;;;;;20.13;13.90;;;12.40;99.90;;;;;;5035547;28;20692;-45
2021/10/19 07:56:51;;;;;;;18.23;13.27;;;12.50;99.90;;;;;;5022146;28;20655;-49
2021/10/19 07:59:18;;;;;;;21.70;14.17;;;12.50;99.90;;;;;;5039545;28;20226;-52
2021/10/19 08:01:44;;;;;;;18.03;13.00;;;12.60;99.90;;;;;;5037249;28;20215;-48
2021/10/19 08:04:11;;;;;;;19.10;13.57;;;12.60;99.90;;;;;;5034411;28;20209;-50
2021/10/19 08:06:38;;;;;;;19.23;13.53;;;12.70;99.90;;;;;;5035864;28;20739;-43
2021/10/19 08:09:05;;;;;;;22.10;14.40;;;12.70;99.90;;;;;;5040827;28;20203;-45
2021/10/19 08:11:33;;;;;;;20.60;14.33;;;12.80;99.90;;;;;;5028454;28;20200;-44
2021/10/19 08:14:01;;;;;;;16.63;13.23;;;12.90;99.90;;;;;;5040695;28;20231;-44
2021/10/19 08:16:28;;;;;;;17.73;13.93;;;13.00;99.90;;;;;;5034836;28;20195;-49
2021/10/19 08:18:55;;;;;;;20.80;13.73;;;13.00;99.90;;;;;;5044050;28;20206;-46
2021/10/19 08:21:22;;;;;;;24.33;14.57;;;13.00;99.90;;;;;;5036318;28;20210;-53
2021/10/19 08:23:49;;;;;;;18.77;13.87;;;13.10;99.90;;;;;;5035101;28;20226;-45
2021/10/19 08:26:15;;;;;;;19.63;13.80;;;13.20;99.90;;;;;;5038845;28;20536;-53
2021/10/19 08:28:44;;;;;;;19.40;14.07;;;13.20;99.90;;;;;;5031007;28;20844;-45
2021/10/19 08:31:14;;;;;;;22.57;13.63;;;13.30;99.90;;;;;;5038407;28;20211;-51
2021/10/19 08:33:43;;;;;;;17.53;12.57;;;13.40;99.90;;;;;;5029576;28;20237;-48
2021/10/19 08:36:10;;;;;;;16.93;13.60;;;13.40;99.90;;;;;;5035868;28;20199;-54
2021/10/19 08:38:37;;;;;;;15.20;12.53;;;13.50;99.90;;;;;;5036570;28;20195;-44
2021/10/19 08:41:04;;;;;;;19.17;13.60;;;13.50;99.90;;;;;;5040157;28;20207;-47
2021/10/19 08:43:31;;;;;;;17.53;12.73;;;13.60;99.90;;;;;;5028491;28;21199;-49
2021/10/19 08:45:58;;;;;;;17.87;13.00;;;13.60;99.90;;;;;;5037993;28;20258;-47
2021/10/19 08:48:26;;;;;;;20.50;13.67;;;13.70;99.90;;;;;;5041173;28;20195;-49
2021/10/19 08:50:56;;;;;;;16.57;12.67;;;13.70;99.90;;;;;;5044272;28;20203;-46
2021/10/19 08:53:23;;;;;;;19.57;12.90;;;13.70;99.90;;;;;;5031149;28;20223;-53
2021/10/19 08:55:49;;;;;;;15.90;12.57;;;13.70;99.90;;;;;;5043919;28;20203;-49
2021/10/19 08:58:16;;;;;;;16.47;11.97;;;13.70;99.90;;;;;;5035680;28;20214;-51
2021/10/19 09:00:43;;;;;;;14.57;11.03;;;13.80;99.90;;;;;;5030505;28;20910;-44
2021/10/19 09:03:10;;;;;;;14.93;12.03;;;13.80;99.90;;;;;;5036389;28;20304;-53
2021/10/19 09:05:38;;;;;;;16.33;11.77;;;13.80;99.90;;;;;;5041015;28;20198;-44
2021/10/19 09:08:07;;;;;;;17.23;12.60;;;13.90;99.90;;;;;;5033125;28;20203;-47
2021/10/19 09:10:35;;;;;;;16.00;11.80;;;14.00;99.90;;;;;;5036033;28;20210;-46
2021/10/19 09:13:05;;;;;;;15.20;12.07;;;14.00;99.90;;;;;;5038788;28;20219;-47
2021/10/19 09:15:33;;;;;;;15.10;12.43;;;14.10;99.90;;;;;;5027682;28;20217;-45
2021/10/19 09:18:01;;;;;;;14.97;12.13;;;14.10;99.90;;;;;;5038678;28;20269;-51
2021/10/19 09:20:28;;;;;;;15.17;12.00;;;14.20;99.90;;;;;;5039851;28;20773;-52
2021/10/19 09:22:58;;;;;;;17.40;11.37;;;14.30;99.90;;;;;;5043132;28;20589;-47
2021/10/19 09:25:27;;;;;;;17.23;13.57;;;14.30;99.90;;;;;;5033925;28;20202;-52
2021/10/19 09:27:55;;;;;;;14.20;11.43;;;14.30;99.90;;;;;;5037664;28;20211;-44
2021/10/19 09:30:33;;;;;;;16.40;11.80;;;14.40;99.90;;;;;;5040717;28;20191;-51
2021/10/19 09:33:00;;;;;;;15.83;12.00;;;14.40;99.90;;;;;;5032350;28;20210;-48
2021/10/19 09:35:27;;;;;;;15.13;11.60;;;14.40;99.90;;;;;;5015338;28;20218;-54
2021/10/19 09:37:59;;;;;;;13.67;10.53;;;14.40;99.90;;;;;;5029433;28;20287;-45
2021/10/19 09:40:36;;;;;;;14.40;9.93;;;14.50;99.90;;;;;;5024769;28;20209;-52
2021/10/19 09:43:05;;;;;;;13.80;10.70;;;14.50;99.90;;;;;;5036726;28;20222;-46
2021/10/19 09:45:32;;;;;;;17.93;12.27;;;14.60;99.90;;;;;;5033863;28;20844;-48
2021/10/19 09:47:59;;;;;;;16.07;11.87;;;14.60;99.90;;;;;;5021759;28;20211;-45
2021/10/19 09:50:27;;;;;;;12.70;10.57;;;14.60;99.90;;;;;;5026339;28;20214;-55
2021/10/19 09:52:54;;;;;;;13.53;11.20;;;14.70;99.90;;;;;;5037061;28;20222;-44
2021/10/19 09:55:23;;;;;;;17.33;10.93;;;14.70;99.90;;;;;;5033587;28;20214;-51
2021/10/19 09:57:51;;;;;;;12.00;10.03;;;14.70;99.90;;;;;;5031253;28;20207;-50
2021/10/19 10:00:19;;;;;;;13.70;11.43;;;14.80;99.90;;;;;;5015373;28;20238;-43
2021/10/19 10:02:47;;;;;;;16.57;11.43;;;14.80;99.90;;;;;;5029233;28;20227;-50
2021/10/19 10:05:14;;;;;;;14.03;10.03;;;14.80;99.90;;;;;;5023486;28;20207;-47
2021/10/19 10:07:43;;;;;;;15.37;10.97;;;14.90;99.90;;;;;;5035285;28;20695;-50
2021/10/19 10:10:12;;;;;;;12.60;9.33;;;15.00;99.90;;;;;;5028831;28;20294;-47
2021/10/19 10:12:44;;;;;;;10.97;9.30;;;15.00;99.90;;;;;;5037163;28;20230;-44
2021/10/19 10:15:23;;;;;;;14.40;11.10;;;15.10;99.90;;;;;;5034583;28;20195;-44
2021/10/19 10:17:51;;;;;;;13.37;11.03;;;15.20;99.90;;;;;;5028078;28;20218;-49
2021/10/19 10:20:18;;;;;;;11.90;10.17;;;15.20;99.90;;;;;;5034469;28;20211;-44
2021/10/19 10:22:45;;;;;;;11.23;10.03;;;15.30;99.90;;;;;;5033262;28;20761;-54
2021/10/19 10:25:16;;;;;;;15.23;11.37;;;15.30;99.90;;;;;;5034164;28;20659;-48
2021/10/19 10:27:44;;;;;;;14.63;11.03;;;15.30;99.90;;;;;;5029934;28;20298;-51
2021/10/19 10:30:22;;;;;;;10.53;9.43;;;15.30;99.90;;;;;;5036995;28;20195;-44
2021/10/19 10:32:50;;;;;;;13.87;11.43;;;15.40;99.90;;;;;;5017885;28;20219;-54
2021/10/19 10:35:19;;;;;;;10.53;9.20;;;15.40;99.90;;;;;;5039751;28;20196;-48
2021/10/19 10:37:50;;;;;;;12.80;9.67;;;15.50;99.90;;;;;;5030907;28;20283;-50
2021/10/19 10:40:28;;;;;;;11.00;9.60;;;15.50;99.90;;;;;;5043091;28;20199;-50
2021/10/19 10:42:57;;;;;;;12.37;9.37;;;15.50;99.90;;;;;;5026124;28;20556;-48
2021/10/19 10:45:29;;;;;;;12.13;8.33;;;15.50;99.90;;;;;;5044293;28;20672;-44
2021/10/19 10:47:59;;;;;;;10.50;8.03;;;15.50;99.90;;;;;;5034069;28;20206;-45
2021/10/19 10:50:26;;;;;;;10.60;9.13;;;15.50;99.90;;;;;;5026869;28;20568;-49
2021/10/19 10:52:58;;;;;;;9.90;8.73;;;15.60;99.90;;;;;;5027048;28;20885;-47
2021/10/19 10:55:25;;;;;;;12.03;8.70;;;15.60;99.90;;;;;;5029047;28;20253;-45
2021/10/19 10:57:52;;;;;;;10.60;9.07;;;15.60;99.90;;;;;;5024407;28;20199;-44
2021/10/19 11:00:25;;;;;;;10.93;8.83;;;15.60;99.90;;;;;;5031573;28;20219;-47
2021/10/19 11:03:05;;;;;;;9.83;8.47;;;15.60;99.90;;;;;;5029595;28;20232;-49
2021/10/19 11:05:32;;;;;;;11.60;9.17;;;15.60;99.90;;;;;;5026244;28;20195;-44
2021/10/19 11:07:59;;;;;;;11.23;9.57;;;15.50;99.90;;;;;;5029150;28;20203;-50
2021/10/19 11:10:25;;;;;;;10.33;8.20;;;15.50;99.90;;;;;;5025675;28;20204;-48
2021/10/19 11:12:59;;;;;;;12.33;9.13;;;15.50;99.90;;;;;;5034940;28;20219;-44
2021/10/19 11:15:28;;;;;;;10.60;9.10;;;15.50;99.90;;;;;;5028283;28;21068;-43
2021/10/19 11:17:56;;;;;;;12.10;9.20;;;15.50;99.90;;;;;;5036270;28;20564;-46
2021/10/19 11:20:25;;;;;;;9.03;8.10;;;15.50;99.90;;;;;;5022677;28;24341;-43
2021/10/19 11:22:52;;;;;;;11.33;9.47;;;15.50;99.90;;;;;;5041889;28;20219;-48
2021/10/19 11:25:20;;;;;;;13.90;9.20;;;15.50;99.90;;;;;;5028202;28;20215;-48
2021/10/19 11:27:47;;;;;;;9.30;7.90;;;15.50;99.90;;;;;;5034067;28;20215;-45
2021/10/19 11:30:14;;;;;;;9.90;8.87;;;15.60;99.90;;;;;;5024511;28;20203;-48
2021/10/19 11:32:42;;;;;;;9.90;8.77;;;15.50;99.90;;;;;;5026714;28;20246;-46
2021/10/19 11:35:09;;;;;;;12.60;9.67;;;15.50;99.90;;;;;;5019793;28;20212;-50
2021/10/19 11:37:37;;;;;;;12.20;9.57;;;15.50;99.90;;;;;;5039702;28;20204;-43
2021/10/19 11:40:06;;;;;;;14.43;10.30;;;15.50;99.90;;;;;;5029778;28;20556;-51
2021/10/19 11:42:45;;;;;;;9.50;8.50;;;15.50;99.90;;;;;;5038898;28;21154;-43
2021/10/19 11:45:12;;;;;;;11.97;9.77;;;15.50;99.90;;;;;;5023389;28;20306;-53
2021/10/19 11:47:45;;;;;;;11.47;8.13;;;15.40;99.90;;;;;;5043720;28;20225;-44
2021/10/19 11:50:12;;;;;;;9.37;8.33;;;15.50;99.90;;;;;;5017446;28;20208;-54
2021/10/19 11:52:39;;;;;;;10.37;9.17;;;15.50;99.90;;;;;;5040433;28;20223;-49
2021/10/19 11:55:06;;;;;;;9.27;8.00;;;15.50;99.90;;;;;;5027128;28;20223;-52
2021/10/19 11:57:36;;;;;;;12.07;10.20;;;15.50;99.90;;;;;;5031453;28;20265;-48
2021/10/19 12:00:07;;;;;;;10.77;9.43;;;15.50;99.90;;;;;;5033610;28;20281;-50
2021/10/19 12:02:50;;;;;;;10.40;8.73;;;15.50;99.90;;;;;;5040920;28;20233;-48
2021/10/19 12:05:16;;;;;;;11.07;8.93;;;15.50;99.90;;;;;;5029251;28;20206;-43
2021/10/19 12:07:49;;;;;;;11.80;9.00;;;15.50;99.90;;;;;;5026218;28;20220;-47
2021/10/19 12:10:18;;;;;;;11.90;9.63;;;15.50;99.90;;;;;;5026393;28;21023;-45
2021/10/19 12:12:56;;;;;;;9.47;8.57;;;15.50;99.90;;;;;;5032812;28;20762;-50
2021/10/19 12:15:24;;;;;;;11.40;8.13;;;15.50;99.90;;;;;;5032468;28;20203;-47
2021/10/19 12:17:58;;;;;;;9.20;8.30;;;15.50;99.90;;;;;;5032343;28;20199;-52
2021/10/19 12:20:26;;;;;;;10.47;8.37;;;15.50;99.90;;;;;;5038557;28;20191;-42
2021/10/19 12:23:01;;;;;;;9.13;8.33;;;15.50;99.90;;;;;;5020722;28;20249;-51
2021/10/19 12:25:34;;;;;;;11.67;9.03;;;15.50;99.90;;;;;;5029560;28;20210;-43
2021/10/19 12:28:01;;;;;;;10.93;8.63;;;15.50;99.90;;;;;;5034593;28;20203;-43
2021/10/19 12:30:36;;;;;;;11.43;9.33;;;15.50;99.90;;;;;;5038656;28;20200;-47
2021/10/19 12:33:09;;;;;;;10.37;8.60;;;15.50;99.90;;;;;;5032555;28;20275;-46
2021/10/19 12:35:36;;;;;;;10.20;9.10;;;15.50;99.90;;;;;;5037187;28;20204;-47